Time;durP1;ratioP1;P1;durP2;ratioP2;P2;SDS_P1;SDS_P2;PMS_P1;PMS_P2;Temp;Humidity;BMP_temperature;BMP_pressure;BME280_temperature;BME280_humidity;BME280_pressure;Samples;Min_cycle;Max_cycle;Signal;HPM_P1;HPM_P2
2022/07/26 00:01:48;;;;;;;4.28;1.90;;;;;;;19.91;65.30;99950.59;1756733;81;21020;-62
2022/07/26 00:04:18;;;;;;;3.33;2.00;;;;;;;19.89;65.34;99954.19;1743912;81;22132;-63
2022/07/26 00:06:50;;;;;;;2.00;1.77;;;;;;;19.85;65.49;99948.89;1744504;81;21036;-62
2022/07/26 00:09:21;;;;;;;5.05;1.90;;;;;;;19.82;65.57;99945.26;1744046;81;21048;-61
2022/07/26 00:11:51;;;;;;;4.10;2.05;;;;;;;19.80;65.69;99948.02;1757080;81;21036;-62
2022/07/26 00:14:21;;;;;;;2.85;2.00;;;;;;;19.77;65.84;99941.06;1696159;82;21174;-61
2022/07/26 00:16:51;;;;;;;2.62;1.80;;;;;;;19.77;65.89;99945.23;1757370;79;21396;-61
2022/07/26 00:19:22;;;;;;;2.75;2.05;;;;;;;19.74;66.03;99941.59;1774139;81;21004;-62
2022/07/26 00:22:32;;;;;;;4.00;2.12;;;;;;;19.73;66.08;99939.92;1751361;81;21012;-62
2022/07/26 00:24:23;;;;;;;2.05;1.80;;;;;;;19.70;66.22;99935.45;1699540;83;21015;-62
2022/07/26 00:26:54;;;;;;;3.25;1.80;;;;;;;19.65;66.43;99935.42;1775499;79;21000;-62
2022/07/26 00:29:46;;;;;;;2.00;1.70;;;;;;;19.63;66.58;99932.92;1754594;80;21098;-62
2022/07/26 00:32:16;;;;;;;3.20;2.05;;;;;;;19.61;66.70;99937.91;1755682;80;21068;-61
2022/07/26 00:34:45;;;;;;;2.42;2.10;;;;;;;19.58;66.84;99937.05;1762229;80;21011;-63
2022/07/26 00:37:15;;;;;;;3.20;2.25;;;;;;;19.54;66.94;99933.14;1752187;80;21071;-60
2022/07/26 00:39:46;;;;;;;3.87;2.33;;;;;;;19.52;67.04;99934.80;1764551;80;21040;-63
2022/07/26 00:42:17;;;;;;;6.00;2.10;;;;;;;19.49;67.17;99938.05;1757065;80;21007;-63
2022/07/26 00:44:47;;;;;;;2.58;1.90;;;;;;;19.47;67.23;99929.69;1752414;80;21000;-62
2022/07/26 00:47:19;;;;;;;2.87;2.00;;;;;;;19.40;67.36;99930.48;1751169;80;21004;-62
2022/07/26 00:49:48;;;;;;;2.98;2.02;;;;;;;19.31;67.60;99932.37;1757121;80;21035;-61
2022/07/26 00:52:18;;;;;;;5.53;1.90;;;;;;;19.25;67.98;99931.20;1782084;80;21493;-61
2022/07/26 00:54:48;;;;;;;3.58;1.75;;;;;;;19.20;68.24;99920.89;1765798;80;20996;-62
2022/07/26 00:57:19;;;;;;;3.67;2.10;;;;;;;19.18;68.47;99918.94;1752093;80;21100;-61
2022/07/26 00:59:49;;;;;;;3.75;2.00;;;;;;;19.13;68.71;99916.67;1752351;80;21150;-62
2022/07/26 01:02:18;;;;;;;5.05;2.20;;;;;;;19.11;68.77;99914.70;1752203;80;21102;-61
2022/07/26 01:04:50;;;;;;;2.72;2.10;;;;;;;19.07;68.98;99913.56;1766887;79;20984;-61
2022/07/26 01:07:21;;;;;;;2.60;1.90;;;;;;;19.03;69.22;99913.27;1761588;80;21047;-63
2022/07/26 01:09:51;;;;;;;4.40;2.00;;;;;;;18.99;69.30;99916.28;1744110;80;21043;-63
2022/07/26 01:12:22;;;;;;;2.67;1.82;;;;;;;18.92;69.55;99916.50;1762359;80;21420;-61
2022/07/26 01:14:51;;;;;;;2.75;2.12;;;;;;;18.88;69.61;99914.52;1733935;80;21074;-63
2022/07/26 01:17:21;;;;;;;2.80;2.08;;;;;;;18.82;69.82;99918.32;1776045;80;21076;-61
2022/07/26 01:19:50;;;;;;;2.17;1.77;;;;;;;18.78;69.81;99915.23;1763134;80;21039;-61
2022/07/26 01:22:21;;;;;;;2.40;1.77;;;;;;;18.77;69.80;99923.27;1699417;82;21006;-61
2022/07/26 01:24:51;;;;;;;5.78;1.60;;;;;;;18.77;69.71;99924.66;1715871;83;21527;-62
2022/07/26 01:27:22;;;;;;;1.85;1.60;;;;;;;18.78;69.50;99921.34;1765549;80;21071;-62
2022/07/26 01:29:52;;;;;;;4.95;1.77;;;;;;;18.77;69.45;99927.98;1751951;80;21007;-62
2022/07/26 01:32:21;;;;;;;2.22;1.85;;;;;;;18.77;69.43;99926.05;1777321;80;20969;-61
2022/07/26 01:34:52;;;;;;;2.80;1.72;;;;;;;18.75;69.30;99927.41;1773141;80;21431;-62
2022/07/26 01:37:21;;;;;;;2.72;1.65;;;;;;;18.73;69.46;99919.34;1755302;80;21016;-62
2022/07/26 01:39:52;;;;;;;3.00;1.70;;;;;;;18.73;69.45;99921.29;1764922;80;21043;-63
2022/07/26 01:42:22;;;;;;;1.75;1.60;;;;;;;18.68;69.42;99921.52;1752048;80;21056;-62
2022/07/26 01:44:52;;;;;;;2.55;1.50;;;;;;;18.62;69.57;99921.19;1758142;80;20968;-62
2022/07/26 01:47:22;;;;;;;1.98;1.62;;;;;;;18.57;69.72;99921.11;1769462;80;21004;-62
2022/07/26 01:49:52;;;;;;;2.95;2.15;;;;;;;18.55;69.85;99928.02;1757557;80;21039;-61
2022/07/26 01:52:23;;;;;;;2.05;1.70;;;;;;;18.52;70.00;99921.05;1758080;80;21059;-62
2022/07/26 01:54:52;;;;;;;2.62;1.65;;;;;;;18.53;70.03;99921.34;1768923;79;21028;-61
2022/07/26 01:57:23;;;;;;;2.00;1.50;;;;;;;18.55;69.94;99919.14;1782100;80;21415;-62
2022/07/26 01:59:54;;;;;;;1.60;1.50;;;;;;;18.53;69.89;99918.56;1778461;80;21027;-62
2022/07/26 02:02:25;;;;;;;2.10;1.67;;;;;;;18.50;69.98;99916.31;1764529;80;21078;-61
2022/07/26 02:04:57;;;;;;;2.50;1.90;;;;;;;18.47;70.04;99921.00;1755592;80;21011;-61
2022/07/26 02:07:30;;;;;;;2.47;1.82;;;;;;;18.40;70.14;99918.15;1769527;79;21454;-61
2022/07/26 02:10:01;;;;;;;2.95;1.70;;;;;;;18.36;70.28;99920.60;1766297;80;21075;-62
2022/07/26 02:12:31;;;;;;;2.47;1.67;;;;;;;18.34;70.40;99922.25;1766787;80;21071;-61
2022/07/26 02:15:00;;;;;;;2.90;1.50;;;;;;;18.32;70.52;99916.13;1769355;80;21055;-61
2022/07/26 02:17:30;;;;;;;2.60;1.70;;;;;;;18.29;70.61;99922.74;1761985;80;21012;-61
2022/07/26 02:19:59;;;;;;;4.15;1.90;;;;;;;18.20;70.79;99917.34;1742967;80;21016;-64
2022/07/26 02:22:29;;;;;;;3.60;1.87;;;;;;;18.18;70.88;99915.38;1775430;80;21031;-61
2022/07/26 02:24:58;;;;;;;3.70;1.95;;;;;;;18.19;70.90;99912.89;1754253;80;21095;-63
2022/07/26 02:27:30;;;;;;;3.02;1.57;;;;;;;18.22;70.69;99917.95;1763830;80;21036;-62
2022/07/26 02:30:00;;;;;;;2.40;1.98;;;;;;;18.24;70.64;99924.08;1764095;80;21049;-62
2022/07/26 02:32:31;;;;;;;3.27;1.80;;;;;;;18.20;70.69;99920.11;1757608;80;21087;-62
2022/07/26 02:35:01;;;;;;;5.33;2.42;;;;;;;18.15;70.76;99920.89;1757629;80;21019;-62
2022/07/26 02:37:30;;;;;;;2.60;1.92;;;;;;;18.15;70.79;99924.21;1769984;79;21530;-62
2022/07/26 02:40:01;;;;;;;2.22;1.92;;;;;;;18.15;70.84;99922.83;1757573;80;21036;-62
2022/07/26 02:42:31;;;;;;;4.25;1.67;;;;;;;18.17;70.84;99923.41;1769342;79;21071;-62
2022/07/26 02:45:01;;;;;;;3.20;2.05;;;;;;;18.14;70.77;99927.53;1764003;80;21027;-62
2022/07/26 02:47:31;;;;;;;2.27;1.98;;;;;;;18.10;70.91;99919.98;1691064;83;21092;-62
2022/07/26 02:50:01;;;;;;;4.00;2.08;;;;;;;18.02;71.10;99921.28;1745589;81;21459;-62
2022/07/26 02:52:31;;;;;;;7.85;2.50;;;;;;;18.00;71.28;99916.00;1699809;83;21455;-62
2022/07/26 02:55:01;;;;;;;4.17;2.42;;;;;;;18.00;71.29;99917.94;1764511;80;21052;-62
2022/07/26 02:57:30;;;;;;;3.87;2.12;;;;;;;18.01;71.29;99913.52;1764759;80;21075;-63
2022/07/26 03:00:02;;;;;;;3.47;2.12;;;;;;;18.03;71.26;99926.57;1758994;80;21470;-61
2022/07/26 03:02:32;;;;;;;3.05;2.27;;;;;;;18.01;71.41;99926.53;1754682;80;21392;-62
2022/07/26 03:05:02;;;;;;;2.72;2.10;;;;;;;18.01;71.47;99925.98;1760898;80;21016;-62
2022/07/26 03:07:32;;;;;;;5.30;2.42;;;;;;;18.04;71.38;99926.02;1769355;80;21420;-63
2022/07/26 03:10:01;;;;;;;5.42;2.52;;;;;;;18.05;71.32;99924.37;1774512;80;21001;-62
2022/07/26 03:12:31;;;;;;;5.55;2.22;;;;;;;18.08;71.15;99925.80;1764892;80;20984;-62
2022/07/26 03:15:01;;;;;;;3.77;2.20;;;;;;;18.11;71.04;99920.28;1751963;80;21063;-63
2022/07/26 03:17:31;;;;;;;4.10;2.45;;;;;;;18.09;71.00;99921.09;1752128;80;21012;-62
2022/07/26 03:20:01;;;;;;;4.95;2.75;;;;;;;18.09;70.97;99919.16;1764582;80;20993;-62
2022/07/26 03:22:31;;;;;;;4.55;2.60;;;;;;;18.11;70.91;99923.05;1671454;84;21067;-62
2022/07/26 03:25:01;;;;;;;3.87;2.50;;;;;;;18.12;71.00;99912.25;1636537;86;21146;-62
2022/07/26 03:27:32;;;;;;;6.75;2.80;;;;;;;18.16;70.92;99922.56;1635908;86;21488;-60
2022/07/26 03:30:02;;;;;;;6.25;2.65;;;;;;;18.20;70.68;99922.88;1639574;86;21537;-62
2022/07/26 03:32:31;;;;;;;6.65;2.90;;;;;;;18.23;70.69;99919.63;1630992;86;21072;-63
2022/07/26 03:35:00;;;;;;;5.47;2.80;;;;;;;18.20;70.67;99920.11;1652639;86;21527;-63
2022/07/26 03:37:30;;;;;;;3.65;2.72;;;;;;;18.22;70.60;99916.56;1636986;86;21039;-62
2022/07/26 03:40:01;;;;;;;5.20;2.90;;;;;;;18.24;70.67;99922.14;1639307;86;21015;-60
2022/07/26 03:42:31;;;;;;;5.35;2.47;;;;;;;18.20;70.72;99914.02;1651029;86;21480;-62
2022/07/26 03:45:01;;;;;;;6.67;3.10;;;;;;;18.21;70.82;99912.95;1649918;86;21071;-63
2022/07/26 03:47:30;;;;;;;4.15;2.70;;;;;;;18.23;70.90;99912.69;1704948;81;21043;-64
2022/07/26 03:50:01;;;;;;;3.30;2.67;;;;;;;18.24;70.92;99905.50;1734797;82;20978;-63
2022/07/26 03:52:31;;;;;;;4.50;2.40;;;;;;;18.28;70.82;99905.81;1748602;82;21015;-62
2022/07/26 03:56:27;;;;;;;6.12;3.17;;;;;;;18.32;70.63;99909.74;1733852;82;21023;-62
2022/07/26 03:57:33;;;;;;;6.35;3.25;;;;;;;18.38;70.57;99914.25;1715986;82;21054;-62
2022/07/26 04:00:05;;;;;;;5.92;3.45;;;;;;;18.44;70.38;99920.14;1719869;82;21043;-62
2022/07/26 04:02:36;;;;;;;5.97;2.98;;;;;;;18.49;70.12;99918.80;1735599;81;21026;-62
2022/07/26 04:05:06;;;;;;;4.33;3.17;;;;;;;18.55;69.90;99917.75;1741496;82;21454;-63
2022/07/26 04:07:43;;;;;;;5.70;3.40;;;;;;;18.60;69.70;99922.52;1740387;82;21026;-62
2022/07/26 04:10:19;;;;;;;6.03;3.20;;;;;;;18.63;69.47;99923.41;1731293;82;21541;-60
2022/07/26 04:12:47;;;;;;;5.15;3.27;;;;;;;18.66;69.31;99925.11;1731978;82;21426;-61
2022/07/26 04:15:17;;;;;;;3.75;2.70;;;;;;;18.72;69.27;99923.77;1631073;86;21118;-61
2022/07/26 04:17:48;;;;;;;6.87;3.22;;;;;;;18.78;69.12;99931.89;1634896;86;21063;-63
2022/07/26 04:20:19;;;;;;;6.35;2.75;;;;;;;18.83;69.01;99932.48;1636023;86;21250;-61
2022/07/26 04:22:49;;;;;;;3.67;3.08;;;;;;;18.85;68.85;99938.61;1648046;86;21090;-61
2022/07/26 04:25:20;;;;;;;4.22;2.85;;;;;;;18.88;68.74;99936.73;1673852;84;21154;-63
2022/07/26 04:27:51;;;;;;;5.17;2.60;;;;;;;18.91;68.65;99941.75;1651773;86;21071;-62
2022/07/26 04:30:20;;;;;;;6.40;2.60;;;;;;;18.93;68.45;99934.00;1678923;84;21105;-62
2022/07/26 04:32:50;;;;;;;6.05;2.75;;;;;;;18.99;68.35;99938.49;1642687;86;21570;-62
2022/07/26 04:35:20;;;;;;;4.70;3.25;;;;;;;19.02;68.22;99942.13;1687475;84;21169;-63
2022/07/26 04:37:50;;;;;;;4.53;3.47;;;;;;;19.07;68.16;99944.11;1645336;86;21510;-62
2022/07/26 04:40:20;;;;;;;6.33;3.37;;;;;;;19.10;67.97;99938.03;1731039;80;21011;-62
2022/07/26 04:42:51;;;;;;;6.55;3.40;;;;;;;19.11;67.91;99948.03;1757034;80;21051;-62
2022/07/26 04:45:21;;;;;;;5.87;2.90;;;;;;;19.13;67.87;99938.89;1771020;80;21048;-62
2022/07/26 04:47:51;;;;;;;7.60;3.80;;;;;;;19.18;67.67;99941.16;1766906;80;21019;-61
2022/07/26 04:50:21;;;;;;;4.97;3.25;;;;;;;19.21;67.50;99943.95;1757322;80;21066;-62
2022/07/26 04:52:52;;;;;;;10.45;5.30;;;;;;;19.25;67.49;99947.32;1747355;81;21008;-63
2022/07/26 04:55:22;;;;;;;10.20;4.08;;;;;;;19.31;67.33;99944.87;1710167;83;21018;-62
2022/07/26 04:57:52;;;;;;;7.55;3.80;;;;;;;19.37;67.33;99949.91;1710315;82;21140;-62
2022/07/26 05:00:23;;;;;;;5.67;3.55;;;;;;;19.40;67.19;99952.70;1710108;82;20997;-61
2022/07/26 05:02:56;;;;;;;7.75;4.67;;;;;;;19.45;67.28;99954.13;1715962;82;21047;-62
2022/07/26 05:05:29;;;;;;;8.25;3.80;;;;;;;19.55;67.09;99950.09;1724581;82;21043;-64
2022/07/26 05:08:01;;;;;;;6.03;3.45;;;;;;;19.73;66.59;99952.98;1739141;82;21000;-64
2022/07/26 05:10:36;;;;;;;7.72;3.77;;;;;;;19.92;66.02;99950.03;1710631;83;21536;-62
2022/07/26 05:13:07;;;;;;;5.28;3.52;;;;;;;20.15;65.61;99954.31;1706349;83;21082;-63
2022/07/26 05:15:37;;;;;;;22.87;3.83;;;;;;;20.42;64.53;99946.69;1711858;82;21100;-62
2022/07/26 05:18:08;;;;;;;8.58;4.45;;;;;;;20.64;63.98;99952.59;1711547;83;21074;-63
2022/07/26 05:20:39;;;;;;;12.33;5.33;;;;;;;20.87;63.09;99953.50;1725859;82;21048;-64
2022/07/26 05:23:10;;;;;;;8.00;3.77;;;;;;;21.07;62.38;99956.30;1723634;82;21051;-63
2022/07/26 05:25:40;;;;;;;7.37;4.30;;;;;;;21.30;61.76;99957.72;1702392;83;21011;-63
2022/07/26 05:28:10;;;;;;;8.25;4.10;;;;;;;21.51;61.11;99955.78;1764596;80;21035;-62
2022/07/26 05:30:39;;;;;;;5.05;3.50;;;;;;;21.71;60.56;99945.16;1752190;80;21040;-64
2022/07/26 05:33:10;;;;;;;9.75;4.37;;;;;;;21.95;59.94;99949.55;1774533;80;21051;-61
2022/07/26 05:35:40;;;;;;;7.25;3.92;;;;;;;22.17;58.92;99942.28;1751675;80;21054;-61
2022/07/26 05:38:09;;;;;;;4.80;3.12;;;;;;;22.35;58.45;99944.43;1752050;80;21016;-62
2022/07/26 05:40:40;;;;;;;7.33;3.60;;;;;;;22.56;58.14;99950.73;1751924;80;21016;-63
2022/07/26 05:43:12;;;;;;;4.78;3.12;;;;;;;22.82;57.55;99938.34;1764612;80;21432;-61
2022/07/26 05:45:42;;;;;;;6.95;3.27;;;;;;;23.12;56.87;99942.87;1752309;80;21490;-64
2022/07/26 05:48:11;;;;;;;8.65;3.27;;;;;;;23.41;55.77;99948.52;1774456;80;21088;-64
2022/07/26 05:50:41;;;;;;;9.60;3.30;;;;;;;23.58;54.88;99945.31;1764561;80;21036;-62
2022/07/26 05:53:11;;;;;;;4.78;2.98;;;;;;;23.72;54.05;99946.28;1764291;80;21032;-64
2022/07/26 05:55:41;;;;;;;6.97;3.87;;;;;;;23.85;53.69;99935.79;1752884;80;21051;-62
2022/07/26 05:58:11;;;;;;;5.45;3.15;;;;;;;24.02;53.21;99939.51;1755643;80;20996;-63
2022/07/26 06:00:40;;;;;;;6.35;2.50;;;;;;;24.17;52.79;99944.12;1771100;80;21040;-63
2022/07/26 06:03:22;;;;;;;3.87;2.83;;;;;;;24.33;52.05;99946.46;1776848;80;21000;-62
2022/07/26 06:05:55;;;;;;;4.58;2.65;;;;;;;24.53;51.45;99949.55;1777043;80;21031;-63
2022/07/26 06:08:25;;;;;;;5.37;3.17;;;;;;;24.75;51.22;99946.19;1764975;80;21458;-61
2022/07/26 06:10:55;;;;;;;4.35;3.10;;;;;;;25.02;50.17;99936.28;1764689;80;21056;-62
2022/07/26 06:13:25;;;;;;;7.58;3.30;;;;;;;25.14;49.43;99938.05;1769543;80;21458;-62
2022/07/26 06:15:54;;;;;;;3.75;2.80;;;;;;;25.11;49.69;99942.86;1768740;80;21055;-63
2022/07/26 06:18:24;;;;;;;6.58;3.30;;;;;;;25.17;49.40;99943.04;1764516;80;21525;-62
2022/07/26 06:20:54;;;;;;;3.75;2.90;;;;;;;25.27;49.06;99941.47;1752032;80;21435;-62
2022/07/26 06:23:24;;;;;;;5.80;3.10;;;;;;;25.42;48.71;99937.03;1751937;80;21063;-62
2022/07/26 06:25:57;;;;;;;7.72;3.92;;;;;;;25.51;48.16;99932.94;1751210;80;21498;-64
2022/07/26 06:28:27;;;;;;;3.83;2.90;;;;;;;25.54;48.32;99933.73;1764766;80;21028;-63
2022/07/26 06:30:57;;;;;;;6.10;3.20;;;;;;;25.58;48.09;99924.95;1751863;80;21509;-61
2022/07/26 06:33:28;;;;;;;5.97;3.33;;;;;;;25.78;47.36;99919.56;1777091;80;21083;-60
2022/07/26 06:35:57;;;;;;;5.65;3.10;;;;;;;25.88;46.52;99919.36;1751953;80;21486;-62
2022/07/26 06:38:27;;;;;;;5.78;2.92;;;;;;;25.86;47.00;99928.66;1764319;80;21431;-62
2022/07/26 06:40:58;;;;;;;4.65;3.20;;;;;;;26.08;46.48;99930.20;1764450;80;21044;-62
2022/07/26 06:43:29;;;;;;;5.80;3.58;;;;;;;26.37;46.15;99922.05;1763157;80;21020;-62
2022/07/26 06:45:59;;;;;;;6.72;3.35;;;;;;;26.57;45.67;99921.59;1752709;80;20996;-63
2022/07/26 06:48:29;;;;;;;5.55;3.20;;;;;;;26.72;45.12;99918.46;1767122;80;21016;-62
2022/07/26 06:50:59;;;;;;;11.12;4.08;;;;;;;26.73;44.61;99904.66;1773283;79;21142;-62
2022/07/26 06:53:30;;;;;;;7.28;3.45;;;;;;;26.71;44.76;99900.51;1744705;80;20992;-63
2022/07/26 06:55:59;;;;;;;5.78;3.17;;;;;;;26.64;44.55;99902.32;1751796;80;20984;-62
2022/07/26 06:58:30;;;;;;;7.03;3.52;;;;;;;26.60;44.99;99902.70;1766101;80;21051;-62
2022/07/26 07:01:00;;;;;;;6.47;3.58;;;;;;;26.68;45.10;99904.78;1774004;80;21011;-62
2022/07/26 07:03:30;;;;;;;7.70;3.52;;;;;;;26.90;44.73;99905.96;1764923;80;21079;-64
2022/07/26 07:06:00;;;;;;;7.78;3.72;;;;;;;27.08;44.29;99899.34;1751847;80;21016;-62
2022/07/26 07:08:30;;;;;;;7.05;3.95;;;;;;;27.16;44.35;99899.98;1751976;80;21051;-63
2022/07/26 07:11:01;;;;;;;8.43;3.65;;;;;;;27.26;43.74;99896.08;1751839;80;21051;-65
2022/07/26 07:13:32;;;;;;;9.40;4.10;;;;;;;27.31;43.86;99895.41;1764499;80;21059;-61
2022/07/26 07:16:03;;;;;;;7.03;3.60;;;;;;;27.35;43.84;99890.80;1771273;80;21451;-63
2022/07/26 07:18:34;;;;;;;8.03;4.10;;;;;;;27.36;43.50;99894.44;1756767;80;21480;-63
2022/07/26 07:21:04;;;;;;;8.45;3.77;;;;;;;27.38;43.34;99887.34;1762750;80;21012;-62
2022/07/26 07:23:34;;;;;;;10.48;3.90;;;;;;;27.40;43.15;99886.44;1762315;80;21140;-62
2022/07/26 07:26:03;;;;;;;6.83;3.40;;;;;;;27.35;43.43;99893.61;1756831;81;21016;-63
2022/07/26 07:28:37;;;;;;;7.47;3.52;;;;;;;27.55;42.42;99889.99;1767205;81;21060;-63
2022/07/26 07:31:05;;;;;;;7.78;4.17;;;;;;;27.55;42.42;99889.99;1757137;81;21001;-61
2022/07/26 07:33:35;;;;;;;6.37;3.52;;;;;;;27.56;42.74;99885.45;1744074;81;20981;-64
2022/07/26 07:36:09;;;;;;;5.22;3.77;;;;;;;27.50;42.90;99884.50;1760230;80;21502;-63
2022/07/26 07:38:40;;;;;;;8.43;3.58;;;;;;;27.60;42.86;99880.83;1750208;80;21012;-63
2022/07/26 07:41:12;;;;;;;6.53;3.00;;;;;;;27.81;41.84;99888.16;1749622;81;21087;-63
2022/07/26 07:43:44;;;;;;;5.92;2.80;;;;;;;27.83;41.74;99881.63;1750499;80;21040;-64
2022/07/26 07:46:15;;;;;;;5.05;3.33;;;;;;;27.83;41.74;99881.63;1756363;81;21032;-63
2022/07/26 07:48:45;;;;;;;6.05;3.70;;;;;;;27.86;41.53;99885.20;1755263;81;20965;-62
2022/07/26 07:51:17;;;;;;;5.60;2.50;;;;;;;27.97;41.58;99878.15;1756138;81;20977;-62
2022/07/26 07:53:48;;;;;;;6.72;3.10;;;;;;;28.13;41.80;99879.10;1749048;81;21004;-64
2022/07/26 07:56:21;;;;;;;7.58;2.90;;;;;;;28.35;41.48;99877.03;1756024;81;21005;-62
2022/07/26 07:58:53;;;;;;;4.25;2.08;;;;;;;28.60;40.76;99882.45;1743996;81;20980;-63
2022/07/26 08:01:23;;;;;;;4.35;2.40;;;;;;;28.86;40.42;99888.73;1756446;81;20972;-63
2022/07/26 08:03:55;;;;;;;4.60;2.35;;;;;;;29.11;39.28;99891.28;1754073;81;21155;-62
2022/07/26 08:06:25;;;;;;;4.75;2.50;;;;;;;29.25;38.96;99891.34;1756434;79;21028;-63
2022/07/26 08:08:56;;;;;;;4.28;2.10;;;;;;;29.47;38.55;99894.59;1766212;81;21055;-63
2022/07/26 08:11:26;;;;;;;6.08;2.55;;;;;;;29.54;38.57;99896.32;1761163;81;21012;-64
2022/07/26 08:13:58;;;;;;;4.08;2.02;;;;;;;29.75;38.08;99897.00;1750542;81;21043;-62
2022/07/26 08:16:29;;;;;;;3.85;2.10;;;;;;;29.88;37.24;99899.60;1760986;81;21032;-62
2022/07/26 08:19:00;;;;;;;2.27;1.87;;;;;;;29.82;37.35;99892.48;1743892;81;20988;-61
2022/07/26 08:21:32;;;;;;;2.20;1.87;;;;;;;29.82;37.43;99891.07;1750706;81;21424;-60
2022/07/26 08:24:02;;;;;;;3.98;2.05;;;;;;;29.77;37.45;99891.26;1762572;81;21179;-62
2022/07/26 08:26:32;;;;;;;137.82;15.20;;;;;;;29.75;36.74;99889.36;1774195;79;21000;-63
2022/07/26 08:29:02;;;;;;;5.58;2.22;;;;;;;29.68;37.31;99883.41;1782439;80;21035;-68
2022/07/26 08:31:33;;;;;;;2.98;1.70;;;;;;;29.81;37.03;99885.17;1762172;80;21055;-70
2022/07/26 08:34:03;;;;;;;4.50;1.75;;;;;;;29.90;36.05;99885.97;1769948;80;21059;-68
2022/07/26 08:36:33;;;;;;;2.40;1.50;;;;;;;29.89;36.22;99887.14;1761801;80;21023;-68
2022/07/26 08:39:03;;;;;;;3.25;1.70;;;;;;;29.95;35.85;99891.45;1724033;82;21512;-64
2022/07/26 08:41:32;;;;;;;3.05;1.87;;;;;;;30.07;35.07;99887.11;1709483;82;21047;-66
2022/07/26 08:44:07;;;;;;;1.98;1.50;;;;;;;30.14;34.38;99888.81;1733650;82;21058;-65
2022/07/26 08:46:38;;;;;;;4.10;1.50;;;;;;;30.10;34.97;99885.02;1725206;83;21103;-66
2022/07/26 08:49:09;;;;;;;2.72;1.62;;;;;;;30.14;34.18;99895.89;1709788;82;21068;-64
2022/07/26 08:51:42;;;;;;;1.75;1.42;;;;;;;30.16;34.40;99887.89;1741842;82;21010;-61
2022/07/26 08:54:14;;;;;;;4.70;1.87;;;;;;;30.15;34.84;99882.00;1697513;83;21095;-74
2022/07/26 08:56:52;;;;;;;2.60;1.60;;;;;;;29.96;34.60;99893.12;1704579;83;21100;-72
2022/07/26 08:59:23;;;;;;;2.27;1.40;;;;;;;29.86;34.49;99882.16;1701468;83;21569;-72
2022/07/26 09:02:01;;;;;;;2.17;1.45;;;;;;;29.84;34.26;99881.67;1723896;82;21087;-70
2022/07/26 09:04:37;;;;;;;2.50;1.52;;;;;;;29.78;34.49;99873.14;1728448;82;21043;-70
2022/07/26 09:07:15;;;;;;;3.62;1.77;;;;;;;29.83;34.50;99877.19;1729476;82;21031;-69
2022/07/26 09:10:00;;;;;;;3.77;1.62;;;;;;;29.81;33.66;99878.11;1711249;82;21075;-68
2022/07/26 09:12:31;;;;;;;2.60;1.50;;;;;;;29.76;33.90;99872.66;1733638;81;21288;-68
2022/07/26 09:15:06;;;;;;;2.30;1.22;;;;;;;29.72;34.45;99873.09;1720932;82;21020;-65
2022/07/26 09:17:45;;;;;;;2.55;1.42;;;;;;;29.77;33.21;99871.48;1727380;82;21046;-68
2022/07/26 09:20:20;;;;;;;3.05;1.60;;;;;;;29.57;33.36;99875.05;1720109;82;21000;-70
2022/07/26 09:23:08;;;;;;;2.80;1.40;;;;;;;29.33;33.57;99868.53;1724355;82;21227;-68
2022/07/26 09:25:42;;;;;;;5.45;1.57;;;;;;;29.03;33.64;99862.75;1710247;82;21045;-64
2022/07/26 09:28:25;;;;;;;2.70;1.50;;;;;;;28.82;34.57;99863.73;1717744;83;21048;-68
2022/07/26 09:31:01;;;;;;;3.52;1.57;;;;;;;28.71;34.60;99852.80;1705514;83;21032;-67
2022/07/26 09:33:49;;;;;;;2.83;1.35;;;;;;;28.52;34.61;99850.02;1744121;81;21024;-68
2022/07/26 09:36:20;;;;;;;13.83;1.82;;;;;;;28.30;35.12;99860.86;1743918;81;20980;-69
2022/07/26 09:38:52;;;;;;;4.20;1.70;;;;;;;28.12;34.83;99846.45;1747997;81;21478;-70
2022/07/26 09:41:26;;;;;;;4.12;1.95;;;;;;;27.93;35.32;99860.21;1762936;81;21008;-70
2022/07/26 09:43:58;;;;;;;2.50;1.65;;;;;;;27.85;35.96;99856.79;1756357;81;21080;-69
2022/07/26 09:46:29;;;;;;;2.98;1.50;;;;;;;27.82;35.89;99850.40;1755661;80;21918;-70
2022/07/26 09:49:01;;;;;;;3.25;1.37;;;;;;;27.74;36.08;99854.02;1744329;81;21005;-70
2022/07/26 09:51:41;;;;;;;2.30;1.40;;;;;;;27.61;35.92;99842.28;1673241;85;21035;-68
2022/07/26 09:54:11;;;;;;;3.47;1.60;;;;;;;27.44;36.05;99855.09;1750821;81;21067;-70
2022/07/26 09:56:50;;;;;;;2.45;1.62;;;;;;;27.30;36.24;99859.12;1748220;81;21436;-69
2022/07/26 09:59:24;;;;;;;2.58;1.60;;;;;;;27.17;36.79;99845.39;1751504;81;21047;-64
2022/07/26 10:01:55;;;;;;;2.77;2.05;;;;;;;27.16;37.12;99849.36;1750528;80;21048;-67
2022/07/26 10:04:24;;;;;;;4.15;2.00;;;;;;;27.12;37.31;99845.53;1761007;79;21008;-67
2022/07/26 10:07:01;;;;;;;3.42;1.80;;;;;;;27.11;37.59;99853.14;1711043;83;21060;-69
2022/07/26 10:09:54;;;;;;;3.33;1.42;;;;;;;27.23;37.36;99859.58;1705780;83;21088;-70
2022/07/26 10:12:26;;;;;;;2.37;1.40;;;;;;;27.25;36.98;99848.83;1705118;83;21082;-70
2022/07/26 10:14:58;;;;;;;2.05;1.37;;;;;;;27.19;36.78;99854.34;1716914;83;21072;-69
2022/07/26 10:17:39;;;;;;;5.95;4.62;;;;;;;27.10;37.45;99857.67;1703981;83;21032;-70
2022/07/26 10:20:13;;;;;;;2.37;1.87;;;;;;;27.04;38.04;99862.60;1713413;83;21229;-70
2022/07/26 10:22:46;;;;;;;2.75;1.50;;;;;;;27.06;37.33;99853.84;1705610;83;21071;-68
2022/07/26 10:25:24;;;;;;;2.00;1.35;;;;;;;27.05;36.88;99854.99;1735338;81;21056;-69
2022/07/26 10:27:56;;;;;;;2.58;1.42;;;;;;;26.94;37.19;99847.36;1761085;80;21008;-69
2022/07/26 10:30:27;;;;;;;1.55;1.10;;;;;;;26.78;37.34;99849.73;1763045;81;20972;-67
2022/07/26 10:33:08;;;;;;;1.70;1.20;;;;;;;26.70;37.50;99839.25;1748301;80;21048;-67
2022/07/26 10:38:25;;;;;;;3.00;1.20;;;;;;;26.82;37.38;99846.53;1773501;81;20961;-66
2022/07/26 10:41:01;;;;;;;3.08;1.32;;;;;;;26.89;36.85;99845.25;1728167;83;21094;-68
2022/07/26 10:43:32;;;;;;;1.80;1.20;;;;;;;26.92;37.15;99838.99;1715632;83;21008;-70
2022/07/26 10:46:22;;;;;;;2.05;1.10;;;;;;;26.95;36.56;99840.59;1707203;83;21024;-66
2022/07/26 10:49:03;;;;;;;2.40;1.20;;;;;;;26.95;36.37;99841.99;1705113;82;21107;-68
2022/07/26 10:51:37;;;;;;;2.37;1.27;;;;;;;26.82;36.82;99842.89;1704399;82;21032;-69
2022/07/26 10:54:11;;;;;;;1.50;1.30;;;;;;;26.79;37.18;99835.92;1704965;83;21055;-71
2022/07/26 10:56:42;;;;;;;1.05;0.90;;;;;;;26.78;37.00;99841.87;1701969;83;21547;-72
2022/07/26 10:59:11;;;;;;;3.37;1.20;;;;;;;26.72;36.87;99838.35;1725293;81;21122;-72
2022/07/26 11:01:44;;;;;;;2.12;1.00;;;;;;;26.62;36.86;99842.78;1756302;81;21032;-67
2022/07/26 11:04:20;;;;;;;3.00;1.25;;;;;;;26.58;36.35;99838.95;1748743;81;20973;-68
2022/07/26 11:06:49;;;;;;;;;;;;;;;26.59;36.80;99835.56;1752595;81;21050;-67
2022/07/26 11:09:19;;;;;;;3.12;1.52;;;;;;;26.55;37.14;99824.13;1752982;80;20145;-67
2022/07/26 11:11:51;;;;;;;2.92;1.45;;;;;;;26.52;37.38;99831.22;1760968;80;21076;-63
2022/07/26 11:14:20;;;;;;;3.60;1.40;;;;;;;26.65;36.93;99831.48;1773386;81;21048;-65
2022/07/26 11:16:54;;;;;;;1.55;1.20;;;;;;;26.69;36.36;99823.53;1754787;81;21103;-64
2022/07/26 11:19:24;;;;;;;1.98;1.27;;;;;;;26.65;36.39;99819.67;1742794;80;21022;-68
2022/07/26 11:22:00;;;;;;;2.35;1.40;;;;;;;26.65;36.55;99830.91;1766929;81;21486;-67
2022/07/26 11:24:30;;;;;;;1.62;1.20;;;;;;;26.68;36.75;99823.27;1757923;81;21098;-65
2022/07/26 11:27:03;;;;;;;3.77;2.02;;;;;;;26.74;36.48;99822.00;1695865;83;21095;-68
2022/07/26 11:29:34;;;;;;;4.42;1.55;;;;;;;26.77;37.03;99817.14;1745400;81;21472;-65
2022/07/26 11:32:07;;;;;;;3.70;1.50;;;;;;;26.84;36.67;99823.15;1770189;80;21012;-66
2022/07/26 11:34:39;;;;;;;3.98;1.30;;;;;;;26.93;36.09;99819.56;1693282;83;21451;-66
2022/07/26 11:37:09;;;;;;;3.37;1.40;;;;;;;26.95;36.28;99807.42;1743935;81;21047;-66
2022/07/26 11:39:39;;;;;;;1.70;1.37;;;;;;;26.96;35.88;99811.31;1682937;84;21482;-69
2022/07/26 11:42:10;;;;;;;1.67;1.30;;;;;;;26.94;35.48;99810.81;1708766;84;21066;-69
2022/07/26 11:44:44;;;;;;;2.25;1.00;;;;;;;26.95;35.65;99815.86;1745698;81;21048;-67
2022/07/26 11:47:22;;;;;;;2.45;1.22;;;;;;;26.93;34.74;99801.29;1753508;81;21004;-67
2022/07/26 11:49:50;;;;;;;1.95;1.10;;;;;;;26.82;35.24;99814.78;1756314;80;21518;-68
2022/07/26 11:52:22;;;;;;;4.03;1.55;;;;;;;26.82;35.37;99809.98;1754769;81;21032;-67
2022/07/26 11:54:53;;;;;;;6.22;1.40;;;;;;;26.84;35.59;99806.28;1718738;81;21009;-68
2022/07/26 11:57:29;;;;;;;1.65;1.20;;;;;;;26.90;35.07;99806.15;1687644;83;21059;-67